sensor_id;sensor_type;location;lat;lon;timestamp;P1;durP1;ratioP1;P2;durP2;ratioP2
36799;SDS011;22752;51.960;5.886;2023-08-24T00:00:40;5.05;;;3.53;;
36799;SDS011;22752;51.960;5.886;2023-08-24T00:03:06;9.05;;;3.40;;
36799;SDS011;22752;51.960;5.886;2023-08-24T00:05:33;5.07;;;3.70;;
36799;SDS011;22752;51.960;5.886;2023-08-24T00:08:03;7.60;;;3.33;;
36799;SDS011;22752;51.960;5.886;2023-08-24T00:10:29;6.30;;;3.38;;
36799;SDS011;22752;51.960;5.886;2023-08-24T00:12:55;5.15;;;3.50;;
36799;SDS011;22752;51.960;5.886;2023-08-24T00:15:21;6.30;;;3.08;;
36799;SDS011;22752;51.960;5.886;2023-08-24T00:17:47;4.63;;;3.03;;
36799;SDS011;22752;51.960;5.886;2023-08-24T00:20:12;4.57;;;3.20;;
36799;SDS011;22752;51.960;5.886;2023-08-24T00:22:38;5.03;;;3.22;;
36799;SDS011;22752;51.960;5.886;2023-08-24T00:25:06;5.40;;;3.45;;
36799;SDS011;22752;51.960;5.886;2023-08-24T00:27:32;5.75;;;3.20;;
36799;SDS011;22752;51.960;5.886;2023-08-24T00:29:59;6.43;;;3.08;;
36799;SDS011;22752;51.960;5.886;2023-08-24T00:32:24;6.45;;;3.28;;
36799;SDS011;22752;51.960;5.886;2023-08-24T00:34:50;8.07;;;3.60;;
36799;SDS011;22752;51.960;5.886;2023-08-24T00:37:15;6.82;;;3.88;;
36799;SDS011;22752;51.960;5.886;2023-08-24T00:39:41;7.20;;;4.45;;
36799;SDS011;22752;51.960;5.886;2023-08-24T00:42:07;9.18;;;3.97;;
36799;SDS011;22752;51.960;5.886;2023-08-24T00:44:33;7.80;;;3.28;;
36799;SDS011;22752;51.960;5.886;2023-08-24T00:46:59;6.07;;;3.45;;
36799;SDS011;22752;51.960;5.886;2023-08-24T00:49:25;4.72;;;3.40;;
36799;SDS011;22752;51.960;5.886;2023-08-24T00:51:51;6.55;;;3.72;;
36799;SDS011;22752;51.960;5.886;2023-08-24T00:54:17;9.77;;;4.45;;
36799;SDS011;22752;51.960;5.886;2023-08-24T00:56:43;5.78;;;3.60;;
36799;SDS011;22752;51.960;5.886;2023-08-24T00:59:09;7.22;;;3.60;;
36799;SDS011;22752;51.960;5.886;2023-08-24T01:01:36;6.10;;;3.50;;
36799;SDS011;22752;51.960;5.886;2023-08-24T01:04:04;7.60;;;4.00;;
36799;SDS011;22752;51.960;5.886;2023-08-24T01:06:32;7.93;;;3.72;;
36799;SDS011;22752;51.960;5.886;2023-08-24T01:08:58;5.07;;;3.70;;
36799;SDS011;22752;51.960;5.886;2023-08-24T01:11:33;8.05;;;3.85;;
36799;SDS011;22752;51.960;5.886;2023-08-24T01:17:15;5.72;;;3.70;;
36799;SDS011;22752;51.960;5.886;2023-08-24T01:19:47;8.10;;;4.60;;
36799;SDS011;22752;51.960;5.886;2023-08-24T01:27:40;5.10;;;3.95;;
36799;SDS011;22752;51.960;5.886;2023-08-24T01:30:07;8.90;;;5.45;;
36799;SDS011;22752;51.960;5.886;2023-08-24T01:32:34;7.63;;;4.47;;
36799;SDS011;22752;51.960;5.886;2023-08-24T01:35:03;5.97;;;5.10;;
36799;SDS011;22752;51.960;5.886;2023-08-24T01:37:30;6.55;;;4.57;;
36799;SDS011;22752;51.960;5.886;2023-08-24T01:40:02;7.10;;;5.10;;
36799;SDS011;22752;51.960;5.886;2023-08-24T01:43:03;8.02;;;5.45;;
36799;SDS011;22752;51.960;5.886;2023-08-24T01:45:29;8.30;;;5.03;;
36799;SDS011;22752;51.960;5.886;2023-08-24T01:47:57;8.48;;;5.53;;
36799;SDS011;22752;51.960;5.886;2023-08-24T01:50:26;6.70;;;4.55;;
36799;SDS011;22752;51.960;5.886;2023-08-24T01:52:52;9.70;;;6.55;;
36799;SDS011;22752;51.960;5.886;2023-08-24T01:55:18;15.32;;;7.40;;
36799;SDS011;22752;51.960;5.886;2023-08-24T01:57:45;10.65;;;6.75;;
36799;SDS011;22752;51.960;5.886;2023-08-24T02:00:10;10.20;;;6.80;;
36799;SDS011;22752;51.960;5.886;2023-08-24T02:02:36;6.65;;;5.22;;
36799;SDS011;22752;51.960;5.886;2023-08-24T02:05:03;14.10;;;7.07;;
36799;SDS011;22752;51.960;5.886;2023-08-24T02:07:29;8.48;;;5.75;;
36799;SDS011;22752;51.960;5.886;2023-08-24T02:09:54;7.47;;;5.20;;
36799;SDS011;22752;51.960;5.886;2023-08-24T02:12:20;7.60;;;5.53;;
36799;SDS011;22752;51.960;5.886;2023-08-24T02:14:46;9.35;;;6.57;;
36799;SDS011;22752;51.960;5.886;2023-08-24T02:17:11;8.23;;;5.40;;
36799;SDS011;22752;51.960;5.886;2023-08-24T02:19:37;6.85;;;5.43;;
36799;SDS011;22752;51.960;5.886;2023-08-24T02:22:03;8.73;;;5.57;;
36799;SDS011;22752;51.960;5.886;2023-08-24T02:24:28;8.05;;;5.40;;
36799;SDS011;22752;51.960;5.886;2023-08-24T02:26:54;8.80;;;6.47;;
36799;SDS011;22752;51.960;5.886;2023-08-24T02:29:20;11.27;;;7.63;;
36799;SDS011;22752;51.960;5.886;2023-08-24T02:31:45;10.68;;;7.20;;
36799;SDS011;22752;51.960;5.886;2023-08-24T02:34:11;14.00;;;7.75;;
36799;SDS011;22752;51.960;5.886;2023-08-24T02:36:37;7.35;;;6.10;;
36799;SDS011;22752;51.960;5.886;2023-08-24T02:39:02;10.43;;;7.55;;
36799;SDS011;22752;51.960;5.886;2023-08-24T02:41:28;9.05;;;7.30;;
36799;SDS011;22752;51.960;5.886;2023-08-24T02:43:54;7.03;;;6.13;;
36799;SDS011;22752;51.960;5.886;2023-08-24T02:46:20;8.90;;;6.93;;
36799;SDS011;22752;51.960;5.886;2023-08-24T02:48:46;15.57;;;7.88;;
36799;SDS011;22752;51.960;5.886;2023-08-24T02:51:13;7.78;;;6.43;;
36799;SDS011;22752;51.960;5.886;2023-08-24T02:53:39;10.60;;;7.20;;
36799;SDS011;22752;51.960;5.886;2023-08-24T02:56:04;13.80;;;8.30;;
36799;SDS011;22752;51.960;5.886;2023-08-24T02:58:30;13.75;;;7.93;;
36799;SDS011;22752;51.960;5.886;2023-08-24T03:00:56;11.48;;;7.68;;
36799;SDS011;22752;51.960;5.886;2023-08-24T03:03:23;10.90;;;6.72;;
36799;SDS011;22752;51.960;5.886;2023-08-24T03:08:22;12.82;;;8.25;;
36799;SDS011;22752;51.960;5.886;2023-08-24T03:10:48;11.90;;;8.77;;
36799;SDS011;22752;51.960;5.886;2023-08-24T03:13:13;14.68;;;9.82;;
36799;SDS011;22752;51.960;5.886;2023-08-24T03:15:39;13.27;;;9.40;;
36799;SDS011;22752;51.960;5.886;2023-08-24T03:18:05;14.48;;;9.85;;
36799;SDS011;22752;51.960;5.886;2023-08-24T03:20:30;13.18;;;8.20;;
36799;SDS011;22752;51.960;5.886;2023-08-24T03:22:56;13.10;;;8.95;;
36799;SDS011;22752;51.960;5.886;2023-08-24T03:25:22;22.92;;;11.30;;
36799;SDS011;22752;51.960;5.886;2023-08-24T03:27:54;12.82;;;9.43;;
36799;SDS011;22752;51.960;5.886;2023-08-24T03:30:20;15.70;;;10.10;;
36799;SDS011;22752;51.960;5.886;2023-08-24T03:32:47;15.15;;;9.55;;
36799;SDS011;22752;51.960;5.886;2023-08-24T03:35:13;16.20;;;11.55;;
36799;SDS011;22752;51.960;5.886;2023-08-24T03:37:40;13.88;;;8.90;;
36799;SDS011;22752;51.960;5.886;2023-08-24T03:40:05;17.00;;;9.13;;
36799;SDS011;22752;51.960;5.886;2023-08-24T03:42:32;11.88;;;9.10;;
36799;SDS011;22752;51.960;5.886;2023-08-24T03:44:59;15.00;;;10.15;;
36799;SDS011;22752;51.960;5.886;2023-08-24T03:47:25;13.90;;;8.82;;
36799;SDS011;22752;51.960;5.886;2023-08-24T03:49:50;10.43;;;7.85;;
36799;SDS011;22752;51.960;5.886;2023-08-24T03:52:16;10.13;;;7.78;;
36799;SDS011;22752;51.960;5.886;2023-08-24T03:54:42;13.23;;;9.80;;
36799;SDS011;22752;51.960;5.886;2023-08-24T03:57:08;11.10;;;8.82;;
36799;SDS011;22752;51.960;5.886;2023-08-24T03:59:33;12.40;;;8.70;;
36799;SDS011;22752;51.960;5.886;2023-08-24T04:01:59;13.30;;;9.68;;
36799;SDS011;22752;51.960;5.886;2023-08-24T04:04:28;16.70;;;10.70;;
36799;SDS011;22752;51.960;5.886;2023-08-24T04:06:54;14.27;;;10.18;;
36799;SDS011;22752;51.960;5.886;2023-08-24T04:09:20;14.10;;;9.32;;
36799;SDS011;22752;51.960;5.886;2023-08-24T04:11:46;14.68;;;10.90;;
36799;SDS011;22752;51.960;5.886;2023-08-24T04:14:11;13.55;;;8.88;;
36799;SDS011;22752;51.960;5.886;2023-08-24T04:16:37;10.55;;;7.40;;
36799;SDS011;22752;51.960;5.886;2023-08-24T04:19:03;13.13;;;8.90;;
36799;SDS011;22752;51.960;5.886;2023-08-24T04:21:28;14.10;;;9.68;;
36799;SDS011;22752;51.960;5.886;2023-08-24T04:23:54;13.88;;;10.15;;
36799;SDS011;22752;51.960;5.886;2023-08-24T04:26:20;9.88;;;8.40;;
36799;SDS011;22752;51.960;5.886;2023-08-24T04:28:45;11.60;;;8.93;;
36799;SDS011;22752;51.960;5.886;2023-08-24T04:31:11;13.82;;;9.45;;
36799;SDS011;22752;51.960;5.886;2023-08-24T04:33:36;14.05;;;10.20;;
36799;SDS011;22752;51.960;5.886;2023-08-24T04:36:02;17.45;;;10.82;;
36799;SDS011;22752;51.960;5.886;2023-08-24T04:38:28;15.55;;;10.25;;
36799;SDS011;22752;51.960;5.886;2023-08-24T04:40:54;16.42;;;9.93;;
36799;SDS011;22752;51.960;5.886;2023-08-24T04:43:22;13.82;;;10.60;;
36799;SDS011;22752;51.960;5.886;2023-08-24T04:45:49;14.20;;;10.45;;
36799;SDS011;22752;51.960;5.886;2023-08-24T04:48:19;16.42;;;10.80;;
36799;SDS011;22752;51.960;5.886;2023-08-24T04:50:45;11.60;;;8.27;;
36799;SDS011;22752;51.960;5.886;2023-08-24T04:53:14;17.30;;;10.05;;
36799;SDS011;22752;51.960;5.886;2023-08-24T04:55:41;10.43;;;8.30;;
36799;SDS011;22752;51.960;5.886;2023-08-24T04:58:07;10.73;;;8.43;;
36799;SDS011;22752;51.960;5.886;2023-08-24T05:00:34;13.02;;;9.70;;
36799;SDS011;22752;51.960;5.886;2023-08-24T05:03:00;14.73;;;10.90;;
36799;SDS011;22752;51.960;5.886;2023-08-24T05:05:30;15.90;;;11.85;;
36799;SDS011;22752;51.960;5.886;2023-08-24T05:08:00;14.25;;;10.27;;
36799;SDS011;22752;51.960;5.886;2023-08-24T05:10:29;14.77;;;10.13;;
36799;SDS011;22752;51.960;5.886;2023-08-24T05:12:56;14.63;;;10.55;;
36799;SDS011;22752;51.960;5.886;2023-08-24T05:15:22;15.35;;;11.05;;
36799;SDS011;22752;51.960;5.886;2023-08-24T05:17:47;13.48;;;9.43;;
36799;SDS011;22752;51.960;5.886;2023-08-24T05:20:14;12.55;;;8.82;;
36799;SDS011;22752;51.960;5.886;2023-08-24T05:22:40;11.27;;;8.70;;
36799;SDS011;22752;51.960;5.886;2023-08-24T05:25:06;11.80;;;8.30;;
36799;SDS011;22752;51.960;5.886;2023-08-24T05:27:32;16.95;;;10.40;;
36799;SDS011;22752;51.960;5.886;2023-08-24T05:29:57;14.57;;;10.07;;
36799;SDS011;22752;51.960;5.886;2023-08-24T05:32:23;10.25;;;7.82;;
36799;SDS011;22752;51.960;5.886;2023-08-24T05:34:49;15.57;;;9.13;;
36799;SDS011;22752;51.960;5.886;2023-08-24T05:37:15;11.65;;;8.23;;
36799;SDS011;22752;51.960;5.886;2023-08-24T05:39:41;14.10;;;9.90;;
36799;SDS011;22752;51.960;5.886;2023-08-24T05:42:07;10.70;;;8.32;;
36799;SDS011;22752;51.960;5.886;2023-08-24T05:44:34;11.80;;;8.10;;
36799;SDS011;22752;51.960;5.886;2023-08-24T05:46:59;10.48;;;8.40;;
36799;SDS011;22752;51.960;5.886;2023-08-24T05:49:25;15.70;;;9.23;;
36799;SDS011;22752;51.960;5.886;2023-08-24T05:51:51;14.10;;;10.18;;
36799;SDS011;22752;51.960;5.886;2023-08-24T05:54:17;10.02;;;7.82;;
36799;SDS011;22752;51.960;5.886;2023-08-24T05:56:44;13.20;;;9.25;;
36799;SDS011;22752;51.960;5.886;2023-08-24T05:59:10;14.43;;;10.85;;
36799;SDS011;22752;51.960;5.886;2023-08-24T06:01:35;13.43;;;9.73;;
36799;SDS011;22752;51.960;5.886;2023-08-24T06:04:04;14.77;;;9.63;;
36799;SDS011;22752;51.960;5.886;2023-08-24T06:06:30;15.32;;;9.38;;
36799;SDS011;22752;51.960;5.886;2023-08-24T06:08:56;11.55;;;8.65;;
36799;SDS011;22752;51.960;5.886;2023-08-24T06:11:22;11.38;;;7.35;;
36799;SDS011;22752;51.960;5.886;2023-08-24T06:13:48;14.73;;;9.00;;
36799;SDS011;22752;51.960;5.886;2023-08-24T06:16:14;11.85;;;7.65;;
36799;SDS011;22752;51.960;5.886;2023-08-24T06:18:39;10.55;;;7.68;;
36799;SDS011;22752;51.960;5.886;2023-08-24T06:21:05;10.02;;;7.22;;
36799;SDS011;22752;51.960;5.886;2023-08-24T06:23:33;11.63;;;8.73;;
36799;SDS011;22752;51.960;5.886;2023-08-24T06:25:59;11.88;;;8.70;;
36799;SDS011;22752;51.960;5.886;2023-08-24T06:28:26;12.20;;;8.35;;
36799;SDS011;22752;51.960;5.886;2023-08-24T06:30:51;11.35;;;8.70;;
36799;SDS011;22752;51.960;5.886;2023-08-24T06:33:19;9.95;;;7.82;;
36799;SDS011;22752;51.960;5.886;2023-08-24T06:35:45;12.80;;;7.75;;
36799;SDS011;22752;51.960;5.886;2023-08-24T06:38:11;11.77;;;7.72;;
36799;SDS011;22752;51.960;5.886;2023-08-24T06:40:36;14.38;;;8.70;;
36799;SDS011;22752;51.960;5.886;2023-08-24T06:43:02;14.15;;;8.75;;
36799;SDS011;22752;51.960;5.886;2023-08-24T06:45:28;11.00;;;7.55;;
36799;SDS011;22752;51.960;5.886;2023-08-24T06:47:54;13.40;;;9.20;;
36799;SDS011;22752;51.960;5.886;2023-08-24T06:50:20;10.13;;;7.63;;
36799;SDS011;22752;51.960;5.886;2023-08-24T06:52:46;13.93;;;6.93;;
36799;SDS011;22752;51.960;5.886;2023-08-24T06:55:11;8.90;;;6.57;;
36799;SDS011;22752;51.960;5.886;2023-08-24T06:57:37;12.88;;;7.53;;
36799;SDS011;22752;51.960;5.886;2023-08-24T07:00:03;8.65;;;6.68;;
36799;SDS011;22752;51.960;5.886;2023-08-24T07:02:34;7.95;;;6.28;;
36799;SDS011;22752;51.960;5.886;2023-08-24T07:05:02;10.35;;;6.40;;
36799;SDS011;22752;51.960;5.886;2023-08-24T07:07:30;7.50;;;6.20;;
36799;SDS011;22752;51.960;5.886;2023-08-24T07:09:55;8.70;;;6.55;;
36799;SDS011;22752;51.960;5.886;2023-08-24T07:12:21;8.70;;;6.25;;
36799;SDS011;22752;51.960;5.886;2023-08-24T07:14:47;9.88;;;6.10;;
36799;SDS011;22752;51.960;5.886;2023-08-24T07:17:12;8.73;;;5.65;;
36799;SDS011;22752;51.960;5.886;2023-08-24T07:19:38;11.75;;;7.10;;
36799;SDS011;22752;51.960;5.886;2023-08-24T07:22:03;6.82;;;5.68;;
36799;SDS011;22752;51.960;5.886;2023-08-24T07:24:29;7.70;;;5.25;;
36799;SDS011;22752;51.960;5.886;2023-08-24T07:26:55;7.75;;;5.50;;
36799;SDS011;22752;51.960;5.886;2023-08-24T07:29:21;7.07;;;5.22;;
36799;SDS011;22752;51.960;5.886;2023-08-24T07:31:47;7.93;;;5.90;;
36799;SDS011;22752;51.960;5.886;2023-08-24T07:34:12;10.27;;;6.97;;
36799;SDS011;22752;51.960;5.886;2023-08-24T07:36:39;10.20;;;5.50;;
36799;SDS011;22752;51.960;5.886;2023-08-24T07:39:05;9.23;;;6.50;;
36799;SDS011;22752;51.960;5.886;2023-08-24T07:41:31;8.82;;;5.93;;
36799;SDS011;22752;51.960;5.886;2023-08-24T07:43:56;11.00;;;6.80;;
36799;SDS011;22752;51.960;5.886;2023-08-24T07:46:22;12.07;;;7.75;;
36799;SDS011;22752;51.960;5.886;2023-08-24T07:48:47;14.25;;;8.85;;
36799;SDS011;22752;51.960;5.886;2023-08-24T07:51:13;8.32;;;5.95;;
36799;SDS011;22752;51.960;5.886;2023-08-24T07:53:39;9.38;;;5.43;;
36799;SDS011;22752;51.960;5.886;2023-08-24T07:56:04;11.40;;;7.40;;
36799;SDS011;22752;51.960;5.886;2023-08-24T07:58:30;10.50;;;7.65;;
36799;SDS011;22752;51.960;5.886;2023-08-24T08:00:58;11.05;;;8.02;;
36799;SDS011;22752;51.960;5.886;2023-08-24T08:03:25;8.05;;;5.97;;
36799;SDS011;22752;51.960;5.886;2023-08-24T08:05:51;10.02;;;6.57;;
36799;SDS011;22752;51.960;5.886;2023-08-24T08:08:16;8.65;;;6.07;;
36799;SDS011;22752;51.960;5.886;2023-08-24T08:10:42;10.27;;;5.20;;
36799;SDS011;22752;51.960;5.886;2023-08-24T08:13:08;9.65;;;6.40;;
36799;SDS011;22752;51.960;5.886;2023-08-24T08:15:36;9.50;;;5.85;;
36799;SDS011;22752;51.960;5.886;2023-08-24T08:18:03;8.77;;;6.43;;
36799;SDS011;22752;51.960;5.886;2023-08-24T08:20:29;9.43;;;6.82;;
36799;SDS011;22752;51.960;5.886;2023-08-24T08:22:56;7.25;;;5.38;;
36799;SDS011;22752;51.960;5.886;2023-08-24T08:25:21;7.03;;;4.97;;
36799;SDS011;22752;51.960;5.886;2023-08-24T08:27:47;11.18;;;6.25;;
36799;SDS011;22752;51.960;5.886;2023-08-24T08:30:14;6.35;;;5.60;;
36799;SDS011;22752;51.960;5.886;2023-08-24T08:32:40;9.43;;;6.28;;
36799;SDS011;22752;51.960;5.886;2023-08-24T08:35:06;6.30;;;4.80;;
36799;SDS011;22752;51.960;5.886;2023-08-24T08:37:33;10.95;;;7.10;;
36799;SDS011;22752;51.960;5.886;2023-08-24T08:40:01;10.25;;;6.45;;
36799;SDS011;22752;51.960;5.886;2023-08-24T08:42:30;11.65;;;6.25;;
36799;SDS011;22752;51.960;5.886;2023-08-24T08:44:56;13.50;;;7.25;;
36799;SDS011;22752;51.960;5.886;2023-08-24T08:47:24;9.55;;;7.20;;
36799;SDS011;22752;51.960;5.886;2023-08-24T08:49:50;6.93;;;5.55;;
36799;SDS011;22752;51.960;5.886;2023-08-24T08:52:17;15.63;;;8.65;;
36799;SDS011;22752;51.960;5.886;2023-08-24T08:54:42;12.00;;;8.15;;
36799;SDS011;22752;51.960;5.886;2023-08-24T08:57:08;10.27;;;7.28;;
36799;SDS011;22752;51.960;5.886;2023-08-24T08:59:34;10.00;;;7.78;;
36799;SDS011;22752;51.960;5.886;2023-08-24T09:02:02;9.15;;;6.25;;
36799;SDS011;22752;51.960;5.886;2023-08-24T09:04:31;9.00;;;6.03;;
36799;SDS011;22752;51.960;5.886;2023-08-24T09:06:58;9.77;;;5.95;;
36799;SDS011;22752;51.960;5.886;2023-08-24T09:09:28;9.77;;;6.95;;
36799;SDS011;22752;51.960;5.886;2023-08-24T09:11:54;11.15;;;6.28;;
36799;SDS011;22752;51.960;5.886;2023-08-24T09:14:21;7.82;;;5.68;;
36799;SDS011;22752;51.960;5.886;2023-08-24T09:16:46;14.13;;;6.43;;
36799;SDS011;22752;51.960;5.886;2023-08-24T09:19:12;13.23;;;7.63;;
36799;SDS011;22752;51.960;5.886;2023-08-24T09:21:38;10.70;;;6.32;;
36799;SDS011;22752;51.960;5.886;2023-08-24T09:24:05;9.43;;;7.55;;
36799;SDS011;22752;51.960;5.886;2023-08-24T09:26:33;13.55;;;7.05;;
36799;SDS011;22752;51.960;5.886;2023-08-24T09:29:00;11.95;;;7.00;;
36799;SDS011;22752;51.960;5.886;2023-08-24T09:31:36;14.38;;;7.75;;
36799;SDS011;22752;51.960;5.886;2023-08-24T09:34:05;13.27;;;7.00;;
36799;SDS011;22752;51.960;5.886;2023-08-24T09:36:32;9.25;;;5.80;;
36799;SDS011;22752;51.960;5.886;2023-08-24T09:39:02;10.55;;;6.93;;
36799;SDS011;22752;51.960;5.886;2023-08-24T09:41:38;16.25;;;9.32;;
36799;SDS011;22752;51.960;5.886;2023-08-24T09:44:09;13.13;;;7.25;;
36799;SDS011;22752;51.960;5.886;2023-08-24T09:46:37;10.82;;;5.15;;
36799;SDS011;22752;51.960;5.886;2023-08-24T09:49:06;12.38;;;6.82;;
36799;SDS011;22752;51.960;5.886;2023-08-24T09:51:33;9.40;;;5.95;;
36799;SDS011;22752;51.960;5.886;2023-08-24T09:54:01;12.80;;;7.00;;
36799;SDS011;22752;51.960;5.886;2023-08-24T09:56:31;9.00;;;5.72;;
36799;SDS011;22752;51.960;5.886;2023-08-24T09:59:00;9.50;;;4.90;;
36799;SDS011;22752;51.960;5.886;2023-08-24T10:01:47;10.60;;;5.63;;
36799;SDS011;22752;51.960;5.886;2023-08-24T10:04:14;9.35;;;5.50;;
36799;SDS011;22752;51.960;5.886;2023-08-24T10:06:42;11.30;;;5.75;;
36799;SDS011;22752;51.960;5.886;2023-08-24T10:09:26;10.93;;;5.30;;
36799;SDS011;22752;51.960;5.886;2023-08-24T10:11:58;8.93;;;4.93;;
36799;SDS011;22752;51.960;5.886;2023-08-24T10:16:56;10.90;;;5.75;;
36799;SDS011;22752;51.960;5.886;2023-08-24T10:19:22;5.72;;;3.70;;
36799;SDS011;22752;51.960;5.886;2023-08-24T10:21:50;9.07;;;4.72;;
36799;SDS011;22752;51.960;5.886;2023-08-24T10:24:18;5.28;;;3.58;;
36799;SDS011;22752;51.960;5.886;2023-08-24T10:26:46;8.57;;;4.13;;
36799;SDS011;22752;51.960;5.886;2023-08-24T10:29:12;10.35;;;5.30;;
36799;SDS011;22752;51.960;5.886;2023-08-24T10:31:40;8.68;;;4.70;;
36799;SDS011;22752;51.960;5.886;2023-08-24T10:34:06;11.30;;;6.05;;
36799;SDS011;22752;51.960;5.886;2023-08-24T10:36:32;9.43;;;6.40;;
36799;SDS011;22752;51.960;5.886;2023-08-24T10:39:02;8.38;;;5.18;;
36799;SDS011;22752;51.960;5.886;2023-08-24T10:41:47;10.50;;;5.55;;
36799;SDS011;22752;51.960;5.886;2023-08-24T10:49:43;7.55;;;5.00;;
36799;SDS011;22752;51.960;5.886;2023-08-24T10:52:31;5.05;;;3.60;;
36799;SDS011;22752;51.960;5.886;2023-08-24T10:55:01;7.95;;;4.45;;
36799;SDS011;22752;51.960;5.886;2023-08-24T10:57:35;7.38;;;4.40;;
36799;SDS011;22752;51.960;5.886;2023-08-24T11:00:10;7.20;;;4.05;;
36799;SDS011;22752;51.960;5.886;2023-08-24T11:02:49;7.68;;;3.72;;
36799;SDS011;22752;51.960;5.886;2023-08-24T11:08:05;8.65;;;5.22;;
36799;SDS011;22752;51.960;5.886;2023-08-24T11:10:34;6.00;;;3.70;;
36799;SDS011;22752;51.960;5.886;2023-08-24T11:13:15;8.77;;;4.38;;
36799;SDS011;22752;51.960;5.886;2023-08-24T11:15:42;6.35;;;3.42;;
36799;SDS011;22752;51.960;5.886;2023-08-24T11:20:41;4.10;;;2.78;;
36799;SDS011;22752;51.960;5.886;2023-08-24T11:23:09;9.32;;;4.95;;
36799;SDS011;22752;51.960;5.886;2023-08-24T11:25:37;4.93;;;3.20;;
36799;SDS011;22752;51.960;5.886;2023-08-24T11:28:04;6.35;;;3.70;;
36799;SDS011;22752;51.960;5.886;2023-08-24T11:30:30;6.10;;;3.50;;
36799;SDS011;22752;51.960;5.886;2023-08-24T11:32:57;6.95;;;3.70;;
36799;SDS011;22752;51.960;5.886;2023-08-24T11:35:23;5.68;;;4.18;;
36799;SDS011;22752;51.960;5.886;2023-08-24T11:37:52;6.38;;;3.65;;
36799;SDS011;22752;51.960;5.886;2023-08-24T11:40:19;6.15;;;3.45;;
36799;SDS011;22752;51.960;5.886;2023-08-24T11:42:45;6.82;;;4.32;;
36799;SDS011;22752;51.960;5.886;2023-08-24T11:45:12;5.70;;;3.95;;
36799;SDS011;22752;51.960;5.886;2023-08-24T11:47:39;7.30;;;3.40;;
36799;SDS011;22752;51.960;5.886;2023-08-24T11:50:05;7.00;;;4.55;;
36799;SDS011;22752;51.960;5.886;2023-08-24T11:52:33;11.45;;;5.40;;
36799;SDS011;22752;51.960;5.886;2023-08-24T11:55:07;10.98;;;4.95;;
36799;SDS011;22752;51.960;5.886;2023-08-24T11:57:37;11.25;;;6.50;;
36799;SDS011;22752;51.960;5.886;2023-08-24T12:00:03;12.23;;;6.07;;
36799;SDS011;22752;51.960;5.886;2023-08-24T12:02:30;9.85;;;4.65;;
36799;SDS011;22752;51.960;5.886;2023-08-24T12:04:57;13.50;;;6.80;;
36799;SDS011;22752;51.960;5.886;2023-08-24T12:07:23;11.00;;;5.53;;
36799;SDS011;22752;51.960;5.886;2023-08-24T12:09:51;8.75;;;5.82;;
36799;SDS011;22752;51.960;5.886;2023-08-24T12:12:19;11.25;;;6.32;;
36799;SDS011;22752;51.960;5.886;2023-08-24T12:14:46;5.20;;;4.18;;
36799;SDS011;22752;51.960;5.886;2023-08-24T12:17:13;10.63;;;5.38;;
36799;SDS011;22752;51.960;5.886;2023-08-24T12:19:43;11.73;;;5.78;;
36799;SDS011;22752;51.960;5.886;2023-08-24T12:22:13;7.57;;;4.95;;
36799;SDS011;22752;51.960;5.886;2023-08-24T12:24:43;10.88;;;4.70;;
36799;SDS011;22752;51.960;5.886;2023-08-24T12:27:16;9.52;;;5.30;;
36799;SDS011;22752;51.960;5.886;2023-08-24T12:29:46;8.77;;;5.35;;
36799;SDS011;22752;51.960;5.886;2023-08-24T12:32:12;9.15;;;5.13;;
36799;SDS011;22752;51.960;5.886;2023-08-24T12:34:37;11.32;;;5.20;;
36799;SDS011;22752;51.960;5.886;2023-08-24T12:37:03;10.43;;;5.55;;
36799;SDS011;22752;51.960;5.886;2023-08-24T12:39:34;9.10;;;4.88;;
36799;SDS011;22752;51.960;5.886;2023-08-24T12:42:04;11.52;;;6.43;;
36799;SDS011;22752;51.960;5.886;2023-08-24T12:44:31;16.05;;;7.20;;
36799;SDS011;22752;51.960;5.886;2023-08-24T12:46:57;12.98;;;5.97;;
36799;SDS011;22752;51.960;5.886;2023-08-24T12:49:23;12.40;;;7.00;;
36799;SDS011;22752;51.960;5.886;2023-08-24T12:51:49;13.95;;;6.65;;
36799;SDS011;22752;51.960;5.886;2023-08-24T12:54:14;12.70;;;6.70;;
36799;SDS011;22752;51.960;5.886;2023-08-24T12:56:40;13.45;;;6.75;;
36799;SDS011;22752;51.960;5.886;2023-08-24T12:59:06;8.10;;;6.00;;
36799;SDS011;22752;51.960;5.886;2023-08-24T13:01:32;10.82;;;7.03;;
36799;SDS011;22752;51.960;5.886;2023-08-24T13:03:57;8.40;;;6.60;;
36799;SDS011;22752;51.960;5.886;2023-08-24T13:06:23;9.77;;;6.15;;
36799;SDS011;22752;51.960;5.886;2023-08-24T13:08:49;14.82;;;7.60;;
36799;SDS011;22752;51.960;5.886;2023-08-24T13:11:15;10.10;;;5.40;;
36799;SDS011;22752;51.960;5.886;2023-08-24T13:13:40;11.55;;;6.22;;
36799;SDS011;22752;51.960;5.886;2023-08-24T13:16:06;9.82;;;4.75;;
36799;SDS011;22752;51.960;5.886;2023-08-24T13:18:32;8.20;;;6.00;;
36799;SDS011;22752;51.960;5.886;2023-08-24T13:20:58;12.32;;;6.38;;
36799;SDS011;22752;51.960;5.886;2023-08-24T13:23:23;9.52;;;5.05;;
36799;SDS011;22752;51.960;5.886;2023-08-24T13:25:49;7.63;;;4.10;;
36799;SDS011;22752;51.960;5.886;2023-08-24T13:28:15;7.85;;;3.75;;
36799;SDS011;22752;51.960;5.886;2023-08-24T13:30:40;7.68;;;4.43;;
36799;SDS011;22752;51.960;5.886;2023-08-24T13:33:07;11.13;;;6.10;;
36799;SDS011;22752;51.960;5.886;2023-08-24T13:35:33;9.27;;;4.90;;
36799;SDS011;22752;51.960;5.886;2023-08-24T13:37:59;8.13;;;4.72;;
36799;SDS011;22752;51.960;5.886;2023-08-24T13:40:25;9.85;;;5.05;;
36799;SDS011;22752;51.960;5.886;2023-08-24T13:42:51;9.55;;;4.85;;
36799;SDS011;22752;51.960;5.886;2023-08-24T13:45:16;10.73;;;5.47;;
36799;SDS011;22752;51.960;5.886;2023-08-24T13:47:42;11.15;;;5.43;;
36799;SDS011;22752;51.960;5.886;2023-08-24T13:50:08;10.57;;;4.95;;
36799;SDS011;22752;51.960;5.886;2023-08-24T13:52:33;7.78;;;4.32;;
36799;SDS011;22752;51.960;5.886;2023-08-24T13:54:59;8.82;;;5.30;;
36799;SDS011;22752;51.960;5.886;2023-08-24T13:57:28;7.47;;;4.63;;
36799;SDS011;22752;51.960;5.886;2023-08-24T13:59:55;6.28;;;4.28;;
36799;SDS011;22752;51.960;5.886;2023-08-24T14:02:20;12.60;;;4.13;;
36799;SDS011;22752;51.960;5.886;2023-08-24T14:04:46;7.07;;;4.40;;
36799;SDS011;22752;51.960;5.886;2023-08-24T14:07:11;6.85;;;4.05;;
36799;SDS011;22752;51.960;5.886;2023-08-24T14:09:37;7.90;;;4.32;;
36799;SDS011;22752;51.960;5.886;2023-08-24T14:12:03;8.52;;;4.38;;
36799;SDS011;22752;51.960;5.886;2023-08-24T14:14:29;8.13;;;5.30;;
36799;SDS011;22752;51.960;5.886;2023-08-24T14:16:54;8.18;;;4.88;;
36799;SDS011;22752;51.960;5.886;2023-08-24T14:19:21;10.43;;;4.82;;
36799;SDS011;22752;51.960;5.886;2023-08-24T14:21:47;7.82;;;4.40;;
36799;SDS011;22752;51.960;5.886;2023-08-24T14:24:12;10.07;;;4.95;;
36799;SDS011;22752;51.960;5.886;2023-08-24T14:26:38;8.68;;;4.88;;
36799;SDS011;22752;51.960;5.886;2023-08-24T14:29:10;8.20;;;5.43;;
36799;SDS011;22752;51.960;5.886;2023-08-24T14:31:36;7.75;;;4.97;;
36799;SDS011;22752;51.960;5.886;2023-08-24T14:34:01;7.22;;;4.15;;
36799;SDS011;22752;51.960;5.886;2023-08-24T14:36:28;10.38;;;5.00;;
36799;SDS011;22752;51.960;5.886;2023-08-24T14:38:54;9.15;;;5.10;;
36799;SDS011;22752;51.960;5.886;2023-08-24T14:41:20;7.28;;;4.70;;
36799;SDS011;22752;51.960;5.886;2023-08-24T14:43:46;10.05;;;5.18;;
36799;SDS011;22752;51.960;5.886;2023-08-24T14:46:12;7.22;;;4.00;;
36799;SDS011;22752;51.960;5.886;2023-08-24T14:48:38;6.95;;;4.03;;
36799;SDS011;22752;51.960;5.886;2023-08-24T14:51:04;6.72;;;4.28;;
36799;SDS011;22752;51.960;5.886;2023-08-24T14:53:30;7.68;;;4.43;;
36799;SDS011;22752;51.960;5.886;2023-08-24T14:55:56;5.78;;;4.20;;
36799;SDS011;22752;51.960;5.886;2023-08-24T14:58:26;8.00;;;5.00;;
36799;SDS011;22752;51.960;5.886;2023-08-24T15:00:52;6.13;;;3.63;;
36799;SDS011;22752;51.960;5.886;2023-08-24T15:03:20;7.20;;;4.60;;